sensor_id;sensor_type;location;lat;lon;timestamp;P1;durP1;ratioP1;P2;durP2;ratioP2
51382;SDS011;37475;43.358;1.248;2023-02-15T00:01:50;18.83;;;11.07;;
51382;SDS011;37475;43.358;1.248;2023-02-15T00:04:18;19.02;;;11.43;;
51382;SDS011;37475;43.358;1.248;2023-02-15T00:06:47;22.33;;;12.07;;
51382;SDS011;37475;43.358;1.248;2023-02-15T00:09:13;25.10;;;11.63;;
51382;SDS011;37475;43.358;1.248;2023-02-15T00:11:39;24.10;;;11.45;;
51382;SDS011;37475;43.358;1.248;2023-02-15T00:14:06;22.33;;;12.40;;
51382;SDS011;37475;43.358;1.248;2023-02-15T00:16:37;20.05;;;11.70;;
51382;SDS011;37475;43.358;1.248;2023-02-15T00:19:05;23.48;;;11.93;;
51382;SDS011;37475;43.358;1.248;2023-02-15T00:21:32;24.40;;;12.30;;
51382;SDS011;37475;43.358;1.248;2023-02-15T00:23:59;24.98;;;12.27;;
51382;SDS011;37475;43.358;1.248;2023-02-15T00:26:27;22.27;;;12.07;;
51382;SDS011;37475;43.358;1.248;2023-02-15T00:28:54;26.02;;;12.50;;
51382;SDS011;37475;43.358;1.248;2023-02-15T00:31:23;22.75;;;12.13;;
51382;SDS011;37475;43.358;1.248;2023-02-15T00:33:49;23.60;;;12.45;;
51382;SDS011;37475;43.358;1.248;2023-02-15T00:36:15;27.33;;;11.90;;
51382;SDS011;37475;43.358;1.248;2023-02-15T00:38:41;24.52;;;12.95;;
51382;SDS011;37475;43.358;1.248;2023-02-15T00:41:07;23.42;;;12.40;;
51382;SDS011;37475;43.358;1.248;2023-02-15T00:43:34;22.42;;;12.35;;
51382;SDS011;37475;43.358;1.248;2023-02-15T00:46:01;21.63;;;12.40;;
51382;SDS011;37475;43.358;1.248;2023-02-15T00:48:29;25.67;;;12.18;;
51382;SDS011;37475;43.358;1.248;2023-02-15T00:50:55;20.80;;;11.82;;
51382;SDS011;37475;43.358;1.248;2023-02-15T00:53:23;25.92;;;12.45;;
51382;SDS011;37475;43.358;1.248;2023-02-15T00:55:51;19.23;;;11.45;;
51382;SDS011;37475;43.358;1.248;2023-02-15T00:58:16;20.35;;;12.07;;
51382;SDS011;37475;43.358;1.248;2023-02-15T01:00:44;23.15;;;11.80;;
51382;SDS011;37475;43.358;1.248;2023-02-15T01:03:11;22.98;;;12.77;;
51382;SDS011;37475;43.358;1.248;2023-02-15T01:05:40;21.33;;;12.43;;
51382;SDS011;37475;43.358;1.248;2023-02-15T01:08:06;23.05;;;12.07;;
51382;SDS011;37475;43.358;1.248;2023-02-15T01:10:33;24.73;;;12.98;;
51382;SDS011;37475;43.358;1.248;2023-02-15T01:13:00;25.63;;;13.43;;
51382;SDS011;37475;43.358;1.248;2023-02-15T01:15:26;24.80;;;12.98;;
51382;SDS011;37475;43.358;1.248;2023-02-15T01:17:52;28.60;;;14.00;;
51382;SDS011;37475;43.358;1.248;2023-02-15T01:20:19;24.90;;;13.02;;
51382;SDS011;37475;43.358;1.248;2023-02-15T01:22:47;25.48;;;13.38;;
51382;SDS011;37475;43.358;1.248;2023-02-15T01:25:15;26.48;;;13.70;;
51382;SDS011;37475;43.358;1.248;2023-02-15T01:27:45;26.50;;;13.60;;
51382;SDS011;37475;43.358;1.248;2023-02-15T01:30:11;23.15;;;12.82;;
51382;SDS011;37475;43.358;1.248;2023-02-15T01:32:38;24.23;;;13.95;;
51382;SDS011;37475;43.358;1.248;2023-02-15T01:35:05;24.00;;;13.90;;
51382;SDS011;37475;43.358;1.248;2023-02-15T01:37:32;32.78;;;13.02;;
51382;SDS011;37475;43.358;1.248;2023-02-15T01:39:59;28.00;;;13.73;;
51382;SDS011;37475;43.358;1.248;2023-02-15T01:42:28;28.55;;;14.73;;
51382;SDS011;37475;43.358;1.248;2023-02-15T01:44:56;23.92;;;13.27;;
51382;SDS011;37475;43.358;1.248;2023-02-15T01:47:34;26.23;;;13.45;;
51382;SDS011;37475;43.358;1.248;2023-02-15T01:56:15;28.73;;;14.23;;
51382;SDS011;37475;43.358;1.248;2023-02-15T01:58:43;24.35;;;13.18;;
51382;SDS011;37475;43.358;1.248;2023-02-15T02:01:10;26.38;;;13.95;;
51382;SDS011;37475;43.358;1.248;2023-02-15T02:06:27;25.63;;;13.25;;
51382;SDS011;37475;43.358;1.248;2023-02-15T02:08:53;26.88;;;14.38;;
51382;SDS011;37475;43.358;1.248;2023-02-15T02:11:21;27.40;;;14.30;;
51382;SDS011;37475;43.358;1.248;2023-02-15T02:13:47;24.45;;;13.75;;
51382;SDS011;37475;43.358;1.248;2023-02-15T02:33:53;29.63;;;14.15;;
51382;SDS011;37475;43.358;1.248;2023-02-15T02:42:15;32.63;;;15.32;;
51382;SDS011;37475;43.358;1.248;2023-02-15T02:44:57;25.95;;;14.38;;
51382;SDS011;37475;43.358;1.248;2023-02-15T02:50:13;28.35;;;14.57;;
51382;SDS011;37475;43.358;1.248;2023-02-15T02:55:16;27.13;;;14.70;;
51382;SDS011;37475;43.358;1.248;2023-02-15T02:57:56;30.33;;;15.35;;
51382;SDS011;37475;43.358;1.248;2023-02-15T03:00:29;29.58;;;15.70;;
51382;SDS011;37475;43.358;1.248;2023-02-15T03:03:02;28.02;;;14.90;;
51382;SDS011;37475;43.358;1.248;2023-02-15T03:05:33;29.08;;;14.32;;
51382;SDS011;37475;43.358;1.248;2023-02-15T03:08:03;28.92;;;14.85;;
51382;SDS011;37475;43.358;1.248;2023-02-15T03:10:31;31.40;;;14.73;;
51382;SDS011;37475;43.358;1.248;2023-02-15T03:12:59;29.08;;;14.38;;
51382;SDS011;37475;43.358;1.248;2023-02-15T03:15:26;28.25;;;14.98;;
51382;SDS011;37475;43.358;1.248;2023-02-15T03:18:22;30.13;;;14.70;;
51382;SDS011;37475;43.358;1.248;2023-02-15T03:20:53;27.35;;;14.77;;
51382;SDS011;37475;43.358;1.248;2023-02-15T03:23:24;29.20;;;15.02;;
51382;SDS011;37475;43.358;1.248;2023-02-15T03:25:57;25.40;;;13.85;;
51382;SDS011;37475;43.358;1.248;2023-02-15T03:28:41;29.38;;;14.70;;
51382;SDS011;37475;43.358;1.248;2023-02-15T03:31:09;26.90;;;13.55;;
51382;SDS011;37475;43.358;1.248;2023-02-15T03:33:40;24.85;;;13.95;;
51382;SDS011;37475;43.358;1.248;2023-02-15T03:38:59;30.42;;;15.32;;
51382;SDS011;37475;43.358;1.248;2023-02-15T03:44:42;29.48;;;14.98;;
51382;SDS011;37475;43.358;1.248;2023-02-15T03:47:25;27.77;;;15.20;;
51382;SDS011;37475;43.358;1.248;2023-02-15T03:52:57;30.75;;;14.57;;
51382;SDS011;37475;43.358;1.248;2023-02-15T03:55:25;34.08;;;15.30;;
51382;SDS011;37475;43.358;1.248;2023-02-15T03:57:51;31.45;;;15.60;;
51382;SDS011;37475;43.358;1.248;2023-02-15T04:00:37;29.20;;;15.05;;
51382;SDS011;37475;43.358;1.248;2023-02-15T04:03:38;31.27;;;14.90;;
51382;SDS011;37475;43.358;1.248;2023-02-15T04:06:08;29.75;;;15.43;;
51382;SDS011;37475;43.358;1.248;2023-02-15T04:08:34;28.67;;;15.30;;
51382;SDS011;37475;43.358;1.248;2023-02-15T04:13:43;32.25;;;15.98;;
51382;SDS011;37475;43.358;1.248;2023-02-15T04:16:09;29.63;;;16.20;;
51382;SDS011;37475;43.358;1.248;2023-02-15T04:18:39;30.25;;;16.27;;
51382;SDS011;37475;43.358;1.248;2023-02-15T04:21:27;36.50;;;16.02;;
51382;SDS011;37475;43.358;1.248;2023-02-15T04:24:14;31.40;;;16.30;;
51382;SDS011;37475;43.358;1.248;2023-02-15T04:26:59;30.50;;;16.23;;
51382;SDS011;37475;43.358;1.248;2023-02-15T04:29:26;30.02;;;16.85;;
51382;SDS011;37475;43.358;1.248;2023-02-15T04:31:53;30.08;;;16.35;;
51382;SDS011;37475;43.358;1.248;2023-02-15T04:34:22;31.73;;;17.25;;
51382;SDS011;37475;43.358;1.248;2023-02-15T04:36:48;33.53;;;16.60;;
51382;SDS011;37475;43.358;1.248;2023-02-15T04:39:15;32.60;;;16.15;;
51382;SDS011;37475;43.358;1.248;2023-02-15T04:41:43;36.00;;;17.25;;
51382;SDS011;37475;43.358;1.248;2023-02-15T04:44:09;31.60;;;16.58;;
51382;SDS011;37475;43.358;1.248;2023-02-15T04:46:35;34.50;;;16.02;;
51382;SDS011;37475;43.358;1.248;2023-02-15T04:49:01;33.75;;;17.50;;
51382;SDS011;37475;43.358;1.248;2023-02-15T04:51:27;33.83;;;17.60;;
51382;SDS011;37475;43.358;1.248;2023-02-15T04:53:53;35.33;;;17.83;;
51382;SDS011;37475;43.358;1.248;2023-02-15T04:56:19;32.75;;;16.17;;
51382;SDS011;37475;43.358;1.248;2023-02-15T04:58:45;34.45;;;17.42;;
51382;SDS011;37475;43.358;1.248;2023-02-15T05:01:12;31.77;;;16.63;;
51382;SDS011;37475;43.358;1.248;2023-02-15T05:03:38;38.17;;;17.83;;
51382;SDS011;37475;43.358;1.248;2023-02-15T05:06:04;35.28;;;17.45;;
51382;SDS011;37475;43.358;1.248;2023-02-15T05:08:30;36.60;;;17.60;;
51382;SDS011;37475;43.358;1.248;2023-02-15T05:10:56;29.20;;;16.98;;
51382;SDS011;37475;43.358;1.248;2023-02-15T05:13:22;37.28;;;17.88;;
51382;SDS011;37475;43.358;1.248;2023-02-15T05:15:49;37.88;;;17.95;;
51382;SDS011;37475;43.358;1.248;2023-02-15T05:18:16;35.58;;;17.00;;
51382;SDS011;37475;43.358;1.248;2023-02-15T05:20:43;33.88;;;17.48;;
51382;SDS011;37475;43.358;1.248;2023-02-15T05:23:09;33.90;;;17.88;;
51382;SDS011;37475;43.358;1.248;2023-02-15T05:25:35;32.25;;;16.67;;
51382;SDS011;37475;43.358;1.248;2023-02-15T05:28:20;38.88;;;17.58;;
51382;SDS011;37475;43.358;1.248;2023-02-15T05:31:08;32.40;;;17.02;;
51382;SDS011;37475;43.358;1.248;2023-02-15T05:33:38;40.38;;;18.83;;
51382;SDS011;37475;43.358;1.248;2023-02-15T05:36:04;39.05;;;18.10;;
51382;SDS011;37475;43.358;1.248;2023-02-15T05:38:31;36.60;;;18.23;;
51382;SDS011;37475;43.358;1.248;2023-02-15T05:40:58;35.70;;;17.98;;
51382;SDS011;37475;43.358;1.248;2023-02-15T05:43:24;38.53;;;17.25;;
51382;SDS011;37475;43.358;1.248;2023-02-15T05:45:53;36.63;;;18.02;;
51382;SDS011;37475;43.358;1.248;2023-02-15T05:48:20;38.20;;;18.48;;
51382;SDS011;37475;43.358;1.248;2023-02-15T05:51:10;32.97;;;17.38;;
51382;SDS011;37475;43.358;1.248;2023-02-15T05:53:39;33.67;;;17.90;;
51382;SDS011;37475;43.358;1.248;2023-02-15T05:56:06;37.33;;;17.70;;
51382;SDS011;37475;43.358;1.248;2023-02-15T05:58:38;32.30;;;16.85;;
51382;SDS011;37475;43.358;1.248;2023-02-15T06:01:11;32.97;;;17.48;;
51382;SDS011;37475;43.358;1.248;2023-02-15T06:03:40;33.95;;;17.67;;
51382;SDS011;37475;43.358;1.248;2023-02-15T06:06:06;39.13;;;18.67;;
51382;SDS011;37475;43.358;1.248;2023-02-15T06:08:33;37.53;;;18.65;;
51382;SDS011;37475;43.358;1.248;2023-02-15T06:11:01;35.03;;;17.67;;
51382;SDS011;37475;43.358;1.248;2023-02-15T06:13:27;38.60;;;18.55;;
51382;SDS011;37475;43.358;1.248;2023-02-15T06:15:53;36.10;;;18.35;;
51382;SDS011;37475;43.358;1.248;2023-02-15T06:18:19;33.95;;;17.80;;
51382;SDS011;37475;43.358;1.248;2023-02-15T06:20:45;37.17;;;17.80;;
51382;SDS011;37475;43.358;1.248;2023-02-15T06:23:11;37.83;;;18.40;;
51382;SDS011;37475;43.358;1.248;2023-02-15T06:25:37;38.85;;;18.83;;
51382;SDS011;37475;43.358;1.248;2023-02-15T06:28:03;36.28;;;17.67;;
51382;SDS011;37475;43.358;1.248;2023-02-15T06:30:29;40.75;;;18.02;;
51382;SDS011;37475;43.358;1.248;2023-02-15T06:32:55;35.15;;;17.95;;
51382;SDS011;37475;43.358;1.248;2023-02-15T06:35:21;35.22;;;17.55;;
51382;SDS011;37475;43.358;1.248;2023-02-15T06:37:47;33.88;;;17.70;;
51382;SDS011;37475;43.358;1.248;2023-02-15T06:40:13;33.78;;;18.15;;
51382;SDS011;37475;43.358;1.248;2023-02-15T06:42:40;44.15;;;20.00;;
51382;SDS011;37475;43.358;1.248;2023-02-15T06:45:07;34.35;;;17.10;;
51382;SDS011;37475;43.358;1.248;2023-02-15T06:47:34;32.75;;;17.65;;
51382;SDS011;37475;43.358;1.248;2023-02-15T06:50:00;33.60;;;17.55;;
51382;SDS011;37475;43.358;1.248;2023-02-15T06:52:26;37.28;;;18.00;;
51382;SDS011;37475;43.358;1.248;2023-02-15T06:54:53;33.42;;;17.95;;
51382;SDS011;37475;43.358;1.248;2023-02-15T06:57:19;32.53;;;16.95;;
51382;SDS011;37475;43.358;1.248;2023-02-15T06:59:44;34.28;;;18.40;;
51382;SDS011;37475;43.358;1.248;2023-02-15T07:02:11;34.95;;;17.60;;
51382;SDS011;37475;43.358;1.248;2023-02-15T07:04:37;31.90;;;16.90;;
51382;SDS011;37475;43.358;1.248;2023-02-15T07:07:03;35.97;;;17.10;;
51382;SDS011;37475;43.358;1.248;2023-02-15T07:09:33;29.85;;;16.60;;
51382;SDS011;37475;43.358;1.248;2023-02-15T07:11:59;31.35;;;16.95;;
51382;SDS011;37475;43.358;1.248;2023-02-15T07:14:44;35.35;;;17.13;;
51382;SDS011;37475;43.358;1.248;2023-02-15T07:17:10;34.42;;;17.77;;
51382;SDS011;37475;43.358;1.248;2023-02-15T07:19:35;31.60;;;15.95;;
51382;SDS011;37475;43.358;1.248;2023-02-15T07:22:01;32.10;;;16.25;;
51382;SDS011;37475;43.358;1.248;2023-02-15T07:24:29;30.35;;;16.85;;
51382;SDS011;37475;43.358;1.248;2023-02-15T07:26:56;35.90;;;17.38;;
51382;SDS011;37475;43.358;1.248;2023-02-15T07:29:22;32.47;;;16.70;;
51382;SDS011;37475;43.358;1.248;2023-02-15T07:31:49;35.08;;;16.67;;
51382;SDS011;37475;43.358;1.248;2023-02-15T07:34:15;28.70;;;16.63;;
51382;SDS011;37475;43.358;1.248;2023-02-15T07:36:41;31.25;;;15.60;;
51382;SDS011;37475;43.358;1.248;2023-02-15T07:39:09;32.92;;;16.50;;
51382;SDS011;37475;43.358;1.248;2023-02-15T07:41:35;30.60;;;16.10;;
51382;SDS011;37475;43.358;1.248;2023-02-15T07:44:01;31.13;;;16.42;;
51382;SDS011;37475;43.358;1.248;2023-02-15T07:46:27;32.08;;;15.98;;
51382;SDS011;37475;43.358;1.248;2023-02-15T07:48:53;28.60;;;15.90;;
51382;SDS011;37475;43.358;1.248;2023-02-15T07:51:19;27.73;;;14.98;;
51382;SDS011;37475;43.358;1.248;2023-02-15T07:53:45;27.75;;;14.77;;
51382;SDS011;37475;43.358;1.248;2023-02-15T07:56:13;27.25;;;14.63;;
51382;SDS011;37475;43.358;1.248;2023-02-15T07:58:40;29.30;;;14.98;;
51382;SDS011;37475;43.358;1.248;2023-02-15T08:01:23;24.90;;;14.32;;
51382;SDS011;37475;43.358;1.248;2023-02-15T08:03:56;26.08;;;14.13;;
51382;SDS011;37475;43.358;1.248;2023-02-15T08:06:23;29.50;;;14.48;;
51382;SDS011;37475;43.358;1.248;2023-02-15T08:08:52;25.80;;;13.75;;
51382;SDS011;37475;43.358;1.248;2023-02-15T08:18:49;24.10;;;13.07;;
51382;SDS011;37475;43.358;1.248;2023-02-15T08:21:15;26.42;;;14.35;;
51382;SDS011;37475;43.358;1.248;2023-02-15T08:23:41;21.75;;;12.73;;
51382;SDS011;37475;43.358;1.248;2023-02-15T08:26:07;22.13;;;13.18;;
51382;SDS011;37475;43.358;1.248;2023-02-15T08:28:32;22.92;;;12.38;;
51382;SDS011;37475;43.358;1.248;2023-02-15T08:31:05;24.75;;;13.20;;
51382;SDS011;37475;43.358;1.248;2023-02-15T08:33:35;20.38;;;12.52;;
51382;SDS011;37475;43.358;1.248;2023-02-15T08:36:03;21.13;;;11.75;;
51382;SDS011;37475;43.358;1.248;2023-02-15T08:38:30;19.60;;;11.77;;
51382;SDS011;37475;43.358;1.248;2023-02-15T08:40:57;17.80;;;11.50;;
51382;SDS011;37475;43.358;1.248;2023-02-15T08:43:33;19.55;;;11.82;;
51382;SDS011;37475;43.358;1.248;2023-02-15T08:45:59;19.38;;;11.75;;
51382;SDS011;37475;43.358;1.248;2023-02-15T08:48:25;21.52;;;11.00;;
51382;SDS011;37475;43.358;1.248;2023-02-15T08:50:50;21.48;;;11.27;;
51382;SDS011;37475;43.358;1.248;2023-02-15T08:53:16;21.70;;;10.95;;
51382;SDS011;37475;43.358;1.248;2023-02-15T08:55:46;20.65;;;10.70;;
51382;SDS011;37475;43.358;1.248;2023-02-15T08:58:19;18.75;;;11.50;;
51382;SDS011;37475;43.358;1.248;2023-02-15T09:00:45;22.00;;;12.80;;
51382;SDS011;37475;43.358;1.248;2023-02-15T09:03:11;21.50;;;12.43;;
51382;SDS011;37475;43.358;1.248;2023-02-15T09:05:37;17.08;;;11.10;;
51382;SDS011;37475;43.358;1.248;2023-02-15T09:08:03;21.02;;;11.85;;
51382;SDS011;37475;43.358;1.248;2023-02-15T09:10:29;16.60;;;10.70;;
51382;SDS011;37475;43.358;1.248;2023-02-15T09:12:55;19.90;;;10.27;;
51382;SDS011;37475;43.358;1.248;2023-02-15T09:15:21;19.85;;;10.13;;
51382;SDS011;37475;43.358;1.248;2023-02-15T09:17:47;16.95;;;10.68;;
51382;SDS011;37475;43.358;1.248;2023-02-15T09:20:12;18.08;;;10.60;;
51382;SDS011;37475;43.358;1.248;2023-02-15T09:22:38;16.20;;;9.77;;
51382;SDS011;37475;43.358;1.248;2023-02-15T09:25:04;14.13;;;9.52;;
51382;SDS011;37475;43.358;1.248;2023-02-15T09:27:30;15.55;;;9.40;;
51382;SDS011;37475;43.358;1.248;2023-02-15T09:29:56;17.65;;;9.98;;
51382;SDS011;37475;43.358;1.248;2023-02-15T09:32:22;16.27;;;9.90;;
51382;SDS011;37475;43.358;1.248;2023-02-15T09:34:48;18.90;;;9.32;;
51382;SDS011;37475;43.358;1.248;2023-02-15T09:37:13;15.55;;;8.95;;
51382;SDS011;37475;43.358;1.248;2023-02-15T09:39:41;16.23;;;9.02;;
51382;SDS011;37475;43.358;1.248;2023-02-15T09:45:16;15.30;;;8.90;;
51382;SDS011;37475;43.358;1.248;2023-02-15T09:57:00;13.60;;;8.30;;
51382;SDS011;37475;43.358;1.248;2023-02-15T09:59:32;15.55;;;8.73;;
51382;SDS011;37475;43.358;1.248;2023-02-15T10:02:13;15.02;;;8.02;;
51382;SDS011;37475;43.358;1.248;2023-02-15T10:05:11;14.48;;;8.60;;
51382;SDS011;37475;43.358;1.248;2023-02-15T10:24:49;11.98;;;7.03;;
51382;SDS011;37475;43.358;1.248;2023-02-15T10:27:46;13.63;;;8.32;;
51382;SDS011;37475;43.358;1.248;2023-02-15T10:30:15;13.20;;;8.30;;
51382;SDS011;37475;43.358;1.248;2023-02-15T10:33:00;15.30;;;7.93;;
51382;SDS011;37475;43.358;1.248;2023-02-15T10:36:15;19.10;;;8.15;;
51382;SDS011;37475;43.358;1.248;2023-02-15T10:41:23;13.80;;;7.28;;
51382;SDS011;37475;43.358;1.248;2023-02-15T10:44:25;10.88;;;7.50;;
51382;SDS011;37475;43.358;1.248;2023-02-15T11:01:25;11.05;;;7.45;;
51382;SDS011;37475;43.358;1.248;2023-02-15T11:07:06;11.82;;;6.75;;
51382;SDS011;37475;43.358;1.248;2023-02-15T11:09:51;12.45;;;6.57;;
51382;SDS011;37475;43.358;1.248;2023-02-15T11:12:37;10.32;;;6.28;;
51382;SDS011;37475;43.358;1.248;2023-02-15T11:15:15;12.80;;;6.93;;
51382;SDS011;37475;43.358;1.248;2023-02-15T11:17:55;11.45;;;6.63;;
51382;SDS011;37475;43.358;1.248;2023-02-15T11:20:35;12.35;;;6.00;;
51382;SDS011;37475;43.358;1.248;2023-02-15T11:23:21;11.85;;;6.30;;
51382;SDS011;37475;43.358;1.248;2023-02-15T11:26:09;10.18;;;5.32;;
51382;SDS011;37475;43.358;1.248;2023-02-15T11:28:51;8.73;;;5.07;;
51382;SDS011;37475;43.358;1.248;2023-02-15T11:31:24;9.98;;;5.53;;
51382;SDS011;37475;43.358;1.248;2023-02-15T11:34:34;8.63;;;5.45;;
51382;SDS011;37475;43.358;1.248;2023-02-15T11:36:47;8.10;;;5.32;;
51382;SDS011;37475;43.358;1.248;2023-02-15T11:39:16;11.60;;;5.60;;
51382;SDS011;37475;43.358;1.248;2023-02-15T11:41:50;10.10;;;5.20;;
51382;SDS011;37475;43.358;1.248;2023-02-15T11:44:28;9.07;;;5.10;;
51382;SDS011;37475;43.358;1.248;2023-02-15T11:47:00;8.05;;;4.80;;
51382;SDS011;37475;43.358;1.248;2023-02-15T11:49:34;8.52;;;5.22;;
51382;SDS011;37475;43.358;1.248;2023-02-15T11:52:00;10.10;;;5.00;;
51382;SDS011;37475;43.358;1.248;2023-02-15T11:54:31;13.52;;;5.32;;
51382;SDS011;37475;43.358;1.248;2023-02-15T11:57:06;7.50;;;4.45;;
51382;SDS011;37475;43.358;1.248;2023-02-15T11:59:50;8.05;;;4.85;;
51382;SDS011;37475;43.358;1.248;2023-02-15T12:02:30;9.38;;;4.72;;
51382;SDS011;37475;43.358;1.248;2023-02-15T12:05:00;8.25;;;5.10;;
51382;SDS011;37475;43.358;1.248;2023-02-15T12:07:40;8.77;;;4.65;;
51382;SDS011;37475;43.358;1.248;2023-02-15T12:10:29;7.80;;;4.50;;
51382;SDS011;37475;43.358;1.248;2023-02-15T12:13:13;10.57;;;4.47;;
51382;SDS011;37475;43.358;1.248;2023-02-15T12:15:43;7.40;;;4.55;;
51382;SDS011;37475;43.358;1.248;2023-02-15T12:18:20;9.20;;;4.72;;
51382;SDS011;37475;43.358;1.248;2023-02-15T12:21:05;8.07;;;4.78;;
51382;SDS011;37475;43.358;1.248;2023-02-15T12:23:32;7.60;;;4.40;;
51382;SDS011;37475;43.358;1.248;2023-02-15T12:25:59;8.00;;;5.03;;
51382;SDS011;37475;43.358;1.248;2023-02-15T12:28:36;7.43;;;4.07;;
51382;SDS011;37475;43.358;1.248;2023-02-15T12:31:07;7.82;;;4.53;;
51382;SDS011;37475;43.358;1.248;2023-02-15T12:33:52;7.93;;;4.60;;
51382;SDS011;37475;43.358;1.248;2023-02-15T12:36:24;8.65;;;4.95;;
51382;SDS011;37475;43.358;1.248;2023-02-15T12:42:13;6.88;;;4.50;;
51382;SDS011;37475;43.358;1.248;2023-02-15T12:44:52;9.07;;;4.65;;
51382;SDS011;37475;43.358;1.248;2023-02-15T12:47:27;8.10;;;4.22;;
51382;SDS011;37475;43.358;1.248;2023-02-15T12:52:42;8.38;;;3.95;;
51382;SDS011;37475;43.358;1.248;2023-02-15T12:58:36;8.50;;;4.18;;
51382;SDS011;37475;43.358;1.248;2023-02-15T13:00:42;6.43;;;3.72;;
51382;SDS011;37475;43.358;1.248;2023-02-15T13:03:15;8.75;;;4.70;;
51382;SDS011;37475;43.358;1.248;2023-02-15T13:05:44;13.27;;;4.65;;
51382;SDS011;37475;43.358;1.248;2023-02-15T13:08:16;6.82;;;4.60;;
51382;SDS011;37475;43.358;1.248;2023-02-15T13:10:56;7.80;;;4.20;;
51382;SDS011;37475;43.358;1.248;2023-02-15T13:15:59;7.93;;;3.80;;
51382;SDS011;37475;43.358;1.248;2023-02-15T13:18:35;7.18;;;3.60;;
51382;SDS011;37475;43.358;1.248;2023-02-15T13:21:10;7.57;;;4.03;;
51382;SDS011;37475;43.358;1.248;2023-02-15T13:23:42;6.57;;;3.97;;
51382;SDS011;37475;43.358;1.248;2023-02-15T13:26:18;8.00;;;3.72;;
51382;SDS011;37475;43.358;1.248;2023-02-15T13:28:55;8.18;;;3.88;;
51382;SDS011;37475;43.358;1.248;2023-02-15T13:31:26;7.47;;;3.83;;
51382;SDS011;37475;43.358;1.248;2023-02-15T13:34:01;7.68;;;3.97;;
51382;SDS011;37475;43.358;1.248;2023-02-15T13:39:47;5.60;;;3.55;;
51382;SDS011;37475;43.358;1.248;2023-02-15T13:42:46;6.35;;;3.22;;
51382;SDS011;37475;43.358;1.248;2023-02-15T14:08:37;4.93;;;3.08;;
51382;SDS011;37475;43.358;1.248;2023-02-15T14:14:59;7.65;;;3.10;;
51382;SDS011;37475;43.358;1.248;2023-02-15T14:26:25;4.90;;;2.72;;
51382;SDS011;37475;43.358;1.248;2023-02-15T14:35:13;4.85;;;2.45;;
51382;SDS011;37475;43.358;1.248;2023-02-15T14:41:04;5.45;;;2.70;;
51382;SDS011;37475;43.358;1.248;2023-02-15T14:46:52;7.00;;;3.13;;
51382;SDS011;37475;43.358;1.248;2023-02-15T14:49:33;6.68;;;2.97;;
51382;SDS011;37475;43.358;1.248;2023-02-15T14:52:07;6.75;;;2.85;;
51382;SDS011;37475;43.358;1.248;2023-02-15T15:02:21;5.65;;;2.90;;
51382;SDS011;37475;43.358;1.248;2023-02-15T15:05:20;4.53;;;2.60;;
51382;SDS011;37475;43.358;1.248;2023-02-15T15:07:58;7.22;;;2.88;;
51382;SDS011;37475;43.358;1.248;2023-02-15T15:10:34;5.72;;;2.90;;
51382;SDS011;37475;43.358;1.248;2023-02-15T15:15:54;5.88;;;3.10;;
51382;SDS011;37475;43.358;1.248;2023-02-15T15:21:44;8.70;;;3.22;;
51382;SDS011;37475;43.358;1.248;2023-02-15T15:38:05;6.82;;;3.13;;
51382;SDS011;37475;43.358;1.248;2023-02-15T15:49:09;6.68;;;3.78;;
51382;SDS011;37475;43.358;1.248;2023-02-15T15:51:46;7.63;;;3.63;;
51382;SDS011;37475;43.358;1.248;2023-02-15T15:54:23;9.27;;;3.58;;
51382;SDS011;37475;43.358;1.248;2023-02-15T15:56:52;13.48;;;3.88;;
51382;SDS011;37475;43.358;1.248;2023-02-15T15:59:32;8.48;;;3.80;;
51382;SDS011;37475;43.358;1.248;2023-02-15T16:02:06;7.15;;;3.83;;
51382;SDS011;37475;43.358;1.248;2023-02-15T16:04:38;8.40;;;4.18;;
51382;SDS011;37475;43.358;1.248;2023-02-15T16:12:35;8.27;;;4.10;;
51382;SDS011;37475;43.358;1.248;2023-02-15T16:15:20;6.20;;;3.95;;
51382;SDS011;37475;43.358;1.248;2023-02-15T16:18:23;10.88;;;4.20;;
51382;SDS011;37475;43.358;1.248;2023-02-15T16:20:52;7.95;;;3.85;;
51382;SDS011;37475;43.358;1.248;2023-02-15T16:28:47;8.23;;;3.80;;
51382;SDS011;37475;43.358;1.248;2023-02-15T16:31:17;7.18;;;4.15;;
51382;SDS011;37475;43.358;1.248;2023-02-15T16:33:44;8.05;;;3.72;;
51382;SDS011;37475;43.358;1.248;2023-02-15T16:36:11;7.97;;;4.30;;
51382;SDS011;37475;43.358;1.248;2023-02-15T16:41:25;8.90;;;4.20;;
51382;SDS011;37475;43.358;1.248;2023-02-15T16:43:54;16.15;;;4.90;;
51382;SDS011;37475;43.358;1.248;2023-02-15T16:46:43;15.10;;;4.70;;
51382;SDS011;37475;43.358;1.248;2023-02-15T16:49:23;21.45;;;5.13;;
51382;SDS011;37475;43.358;1.248;2023-02-15T16:54:30;9.55;;;4.28;;
51382;SDS011;37475;43.358;1.248;2023-02-15T16:56:57;7.90;;;4.68;;
51382;SDS011;37475;43.358;1.248;2023-02-15T17:13:34;14.77;;;5.95;;
51382;SDS011;37475;43.358;1.248;2023-02-15T17:18:26;15.07;;;5.70;;
51382;SDS011;37475;43.358;1.248;2023-02-15T17:21:18;15.07;;;5.70;;
51382;SDS011;37475;43.358;1.248;2023-02-15T17:23:47;11.25;;;5.63;;
51382;SDS011;37475;43.358;1.248;2023-02-15T17:32:01;9.85;;;5.70;;
51382;SDS011;37475;43.358;1.248;2023-02-15T17:37:26;12.63;;;6.43;;
51382;SDS011;37475;43.358;1.248;2023-02-15T17:39:52;10.90;;;5.82;;
51382;SDS011;37475;43.358;1.248;2023-02-15T17:42:18;11.85;;;6.72;;
51382;SDS011;37475;43.358;1.248;2023-02-15T17:44:44;11.82;;;6.25;;
51382;SDS011;37475;43.358;1.248;2023-02-15T17:47:12;9.85;;;6.00;;
51382;SDS011;37475;43.358;1.248;2023-02-15T17:49:46;12.15;;;6.47;;
51382;SDS011;37475;43.358;1.248;2023-02-15T17:52:14;12.93;;;6.60;;
51382;SDS011;37475;43.358;1.248;2023-02-15T17:54:42;12.73;;;6.72;;
51382;SDS011;37475;43.358;1.248;2023-02-15T17:57:28;10.95;;;6.55;;
51382;SDS011;37475;43.358;1.248;2023-02-15T17:59:55;13.23;;;6.90;;
51382;SDS011;37475;43.358;1.248;2023-02-15T18:02:40;12.00;;;6.80;;
51382;SDS011;37475;43.358;1.248;2023-02-15T18:05:25;12.48;;;6.95;;
51382;SDS011;37475;43.358;1.248;2023-02-15T18:08:13;11.80;;;6.70;;
51382;SDS011;37475;43.358;1.248;2023-02-15T18:11:00;13.02;;;7.10;;
51382;SDS011;37475;43.358;1.248;2023-02-15T18:13:45;12.52;;;7.28;;
51382;SDS011;37475;43.358;1.248;2023-02-15T18:16:15;16.65;;;7.05;;
51382;SDS011;37475;43.358;1.248;2023-02-15T18:18:47;14.90;;;7.70;;
51382;SDS011;37475;43.358;1.248;2023-02-15T18:21:13;13.30;;;7.28;;
51382;SDS011;37475;43.358;1.248;2023-02-15T18:23:39;13.23;;;7.72;;
51382;SDS011;37475;43.358;1.248;2023-02-15T18:26:08;14.70;;;7.63;;
51382;SDS011;37475;43.358;1.248;2023-02-15T18:28:43;14.63;;;7.47;;
51382;SDS011;37475;43.358;1.248;2023-02-15T18:31:09;14.80;;;7.47;;
51382;SDS011;37475;43.358;1.248;2023-02-15T18:33:56;16.83;;;8.18;;
51382;SDS011;37475;43.358;1.248;2023-02-15T18:36:31;13.23;;;8.07;;
51382;SDS011;37475;43.358;1.248;2023-02-15T18:39:22;15.45;;;7.78;;
51382;SDS011;37475;43.358;1.248;2023-02-15T18:42:02;17.17;;;8.70;;
51382;SDS011;37475;43.358;1.248;2023-02-15T18:44:28;13.00;;;8.15;;
51382;SDS011;37475;43.358;1.248;2023-02-15T18:46:54;15.43;;;9.82;;
51382;SDS011;37475;43.358;1.248;2023-02-15T18:49:20;15.57;;;8.65;;
51382;SDS011;37475;43.358;1.248;2023-02-15T18:51:46;14.65;;;8.63;;
51382;SDS011;37475;43.358;1.248;2023-02-15T18:54:16;16.70;;;9.25;;
51382;SDS011;37475;43.358;1.248;2023-02-15T18:59:18;16.30;;;9.10;;
51382;SDS011;37475;43.358;1.248;2023-02-15T19:01:44;14.98;;;8.60;;
51382;SDS011;37475;43.358;1.248;2023-02-15T19:04:09;15.48;;;9.25;;
51382;SDS011;37475;43.358;1.248;2023-02-15T19:06:42;14.93;;;9.27;;